createdAt,value
2018-03-03T00:02:01.067Z,31.23
2018-03-03T00:04:28.534Z,30.20
2018-03-03T00:06:56.007Z,30.27
2018-03-03T00:09:23.461Z,31.17
2018-03-03T00:11:50.931Z,31.63
2018-03-03T00:14:18.403Z,31.10
2018-03-03T00:16:45.850Z,31.40
2018-03-03T00:19:13.338Z,30.17
2018-03-03T00:21:40.819Z,29.70
2018-03-03T00:24:08.273Z,31.17
2018-03-03T00:26:35.779Z,30.73
2018-03-03T00:29:04.006Z,29.93
2018-03-03T00:31:31.463Z,30.33
2018-03-03T00:33:58.911Z,29.27
2018-03-03T00:36:26.378Z,31.87
2018-03-03T00:38:53.840Z,31.83
2018-03-03T00:41:21.307Z,31.07
2018-03-03T00:43:48.757Z,29.27
2018-03-03T00:46:16.236Z,30.73
2018-03-03T00:48:43.707Z,31.13
2018-03-03T00:51:11.171Z,30.07
2018-03-03T00:53:38.633Z,31.57
2018-03-03T00:56:06.119Z,34.30
2018-03-03T00:58:33.571Z,37.00
2018-03-03T01:01:01.032Z,37.33
2018-03-03T01:03:28.489Z,36.53
2018-03-03T01:05:55.953Z,36.77
2018-03-03T01:08:23.420Z,36.17
2018-03-03T01:10:50.873Z,33.33
2018-03-03T01:13:18.333Z,32.43
2018-03-03T01:15:45.804Z,30.53
2018-03-03T01:18:13.278Z,30.90
2018-03-03T01:20:40.735Z,32.20
2018-03-03T01:23:08.209Z,30.63
2018-03-03T01:25:35.676Z,32.93
2018-03-03T01:28:03.133Z,30.23
2018-03-03T01:30:30.607Z,30.47
2018-03-03T01:32:58.068Z,32.57
2018-03-03T01:35:25.509Z,30.50
2018-03-03T01:37:52.976Z,30.60
2018-03-03T01:40:20.435Z,30.47
2018-03-03T01:42:47.885Z,31.97
2018-03-03T01:45:15.345Z,31.00
2018-03-03T01:47:42.834Z,28.53
2018-03-03T01:50:10.285Z,32.37
2018-03-03T01:52:37.758Z,29.93
2018-03-03T01:55:05.209Z,33.17
2018-03-03T01:57:32.667Z,30.07
2018-03-03T02:00:00.165Z,31.37
2018-03-03T02:02:27.624Z,30.60
2018-03-03T02:04:55.094Z,29.07
2018-03-03T02:07:23.316Z,31.27
2018-03-03T02:09:50.786Z,30.53
2018-03-03T02:12:18.338Z,29.47
2018-03-03T02:14:45.800Z,30.00
2018-03-03T02:17:13.272Z,29.87
2018-03-03T02:19:40.726Z,29.07
2018-03-03T02:22:08.196Z,30.17
2018-03-03T02:24:35.669Z,30.03
2018-03-03T02:27:03.138Z,31.70
2018-03-03T02:29:30.604Z,30.13
2018-03-03T02:31:58.127Z,29.03
2018-03-03T02:34:25.612Z,30.70
2018-03-03T02:36:53.063Z,30.13
2018-03-03T02:39:20.506Z,28.00
2018-03-03T02:41:48.743Z,30.20
2018-03-03T02:44:17.044Z,29.27
2018-03-03T02:46:44.486Z,29.87
2018-03-03T02:49:11.941Z,30.40
2018-03-03T02:51:39.390Z,29.40
2018-03-03T02:54:06.856Z,28.67
2018-03-03T02:56:34.326Z,29.20
2018-03-03T02:59:01.781Z,28.87
2018-03-03T03:01:29.245Z,29.33
2018-03-03T03:03:56.707Z,30.30
2018-03-03T03:06:24.168Z,29.93
2018-03-03T03:08:51.649Z,29.87
2018-03-03T03:11:19.104Z,29.30
2018-03-03T03:13:46.559Z,29.37
2018-03-03T03:16:14.043Z,28.73
2018-03-03T03:18:42.277Z,29.00
2018-03-03T03:21:09.725Z,30.03
2018-03-03T03:23:37.961Z,28.37
2018-03-03T03:26:05.432Z,28.30
2018-03-03T03:28:32.911Z,27.67
2018-03-03T03:31:00.372Z,29.37
2018-03-03T03:33:27.834Z,28.90
2018-03-03T03:35:55.297Z,28.90
2018-03-03T03:38:22.749Z,28.30
2018-03-03T03:40:50.194Z,31.03
2018-03-03T03:43:17.672Z,29.50
2018-03-03T03:45:45.125Z,29.77
2018-03-03T03:48:12.585Z,29.83
2018-03-03T03:50:40.044Z,28.70
2018-03-03T03:53:07.504Z,29.97
2018-03-03T03:55:34.962Z,30.40
2018-03-03T03:58:02.419Z,30.03
2018-03-03T04:00:29.944Z,28.17
2018-03-03T04:02:58.180Z,28.00
2018-03-03T04:05:25.636Z,29.93
2018-03-03T04:07:53.119Z,31.13
2018-03-03T04:10:20.591Z,28.80
2018-03-03T04:12:48.042Z,29.47
2018-03-03T04:15:15.574Z,29.67
2018-03-03T04:17:43.036Z,28.13
2018-03-03T04:20:10.512Z,29.77
2018-03-03T04:22:37.971Z,27.90
2018-03-03T04:25:05.446Z,30.07
2018-03-03T04:27:32.905Z,29.10
2018-03-03T04:30:00.368Z,28.13
2018-03-03T04:32:27.834Z,29.00
2018-03-03T04:34:55.308Z,31.07
2018-03-03T04:37:22.741Z,29.83
2018-03-03T04:39:50.205Z,30.87
2018-03-03T04:42:17.666Z,30.03
2018-03-03T04:44:45.126Z,29.47
2018-03-03T04:47:12.601Z,29.17
2018-03-03T04:49:40.112Z,28.23
2018-03-03T04:52:08.332Z,28.53
2018-03-03T04:54:35.774Z,26.87
2018-03-03T04:57:03.236Z,28.87
2018-03-03T04:59:44.333Z,28.03
2018-03-03T05:02:11.791Z,27.80
2018-03-03T05:04:58.960Z,28.43
2018-03-03T05:07:39.090Z,28.80
2018-03-03T05:10:06.551Z,28.47
2018-03-03T05:12:41.429Z,28.10
2018-03-03T05:15:24.725Z,29.23
2018-03-03T05:18:08.854Z,28.23
2018-03-03T05:20:53.161Z,29.67
2018-03-03T05:26:18.811Z,39.97
2018-03-03T05:28:52.082Z,31.40
2018-03-03T05:31:25.468Z,31.73
2018-03-03T05:34:09.571Z,29.90
2018-03-03T05:36:42.589Z,30.10
2018-03-03T05:39:30.490Z,32.13
2018-03-03T05:42:03.749Z,30.60
2018-03-03T05:44:36.954Z,30.90
2018-03-03T05:47:09.337Z,30.57
2018-03-03T05:49:40.240Z,30.70
2018-03-03T05:52:13.467Z,30.47
2018-03-03T05:54:47.467Z,30.60
2018-03-03T05:57:20.774Z,29.30
2018-03-03T05:59:53.939Z,28.63
2018-03-03T06:02:27.132Z,29.97
2018-03-03T06:04:54.595Z,29.73
2018-03-03T06:07:37.737Z,28.03
2018-03-03T06:10:20.880Z,29.87
2018-03-03T06:12:48.340Z,27.33
2018-03-03T06:15:15.787Z,28.87
2018-03-03T06:17:43.262Z,28.90
2018-03-03T06:20:10.713Z,27.70
2018-03-03T06:22:38.175Z,27.23
2018-03-03T06:25:05.645Z,29.20
2018-03-03T06:27:33.112Z,27.27
2018-03-03T06:30:00.570Z,28.77
2018-03-03T06:32:28.005Z,29.17
2018-03-03T06:34:55.467Z,28.57
2018-03-03T06:37:22.926Z,28.07
2018-03-03T06:39:50.410Z,28.57
2018-03-03T06:42:17.845Z,29.30
2018-03-03T06:44:45.291Z,28.13
2018-03-03T06:47:13.522Z,26.57
2018-03-03T06:49:40.969Z,26.67
2018-03-03T06:52:08.431Z,28.37
2018-03-03T06:54:35.887Z,28.10
2018-03-03T06:57:03.343Z,28.07
2018-03-03T06:59:30.795Z,26.43
2018-03-03T07:01:58.251Z,27.90
2018-03-03T07:04:26.487Z,26.67
2018-03-03T07:06:53.960Z,28.37
2018-03-03T07:09:22.203Z,27.40
2018-03-03T07:11:50.065Z,27.30
2018-03-03T07:14:18.134Z,27.33
2018-03-03T07:16:45.642Z,29.63
2018-03-03T07:19:13.119Z,28.73
2018-03-03T07:21:40.571Z,26.50
2018-03-03T07:24:08.036Z,27.90
2018-03-03T07:26:35.494Z,29.37
2018-03-03T07:29:02.945Z,27.60
2018-03-03T07:31:31.182Z,28.57
2018-03-03T07:33:59.396Z,28.80
2018-03-03T07:36:26.856Z,29.33
2018-03-03T07:38:54.315Z,27.60
2018-03-03T07:41:21.797Z,26.80
2018-03-03T07:43:49.310Z,28.33
2018-03-03T07:46:17.527Z,34.27
2018-03-03T07:48:44.988Z,26.97
2018-03-03T07:51:12.446Z,29.63
2018-03-03T07:53:39.912Z,27.20
2018-03-03T07:56:07.374Z,26.83
2018-03-03T07:58:46.791Z,27.60
2018-03-03T08:01:14.244Z,27.77
2018-03-03T08:03:41.706Z,25.23
2018-03-03T08:06:09.176Z,27.00
2018-03-03T08:08:37.124Z,26.37
2018-03-03T08:11:04.580Z,27.23
2018-03-03T08:13:32.807Z,27.37
2018-03-03T08:16:00.266Z,27.17
2018-03-03T08:18:27.729Z,26.53
2018-03-03T08:20:55.185Z,29.80
2018-03-03T08:23:23.385Z,26.10
2018-03-03T08:25:50.868Z,26.43
2018-03-03T08:28:18.322Z,26.97
2018-03-03T08:30:46.579Z,25.50
2018-03-03T08:33:14.048Z,26.27
2018-03-03T08:35:41.510Z,25.50
2018-03-03T08:38:08.977Z,26.23
2018-03-03T08:40:36.445Z,27.20
2018-03-03T08:43:03.894Z,27.67
2018-03-03T08:45:31.395Z,26.50
2018-03-03T08:47:58.875Z,28.73
2018-03-03T08:50:26.362Z,28.20
2018-03-03T08:52:54.581Z,27.27
2018-03-03T08:55:22.048Z,27.93
2018-03-03T08:57:49.502Z,26.97
2018-03-03T09:00:16.960Z,28.93
2018-03-03T09:02:44.427Z,26.87
2018-03-03T09:05:11.879Z,29.83
2018-03-03T09:07:39.348Z,27.87
2018-03-03T09:10:06.889Z,27.93
2018-03-03T09:12:34.294Z,28.87
2018-03-03T09:15:01.757Z,28.33
2018-03-03T09:19:57.916Z,28.90
2018-03-03T09:22:25.367Z,30.13
2018-03-03T09:24:52.875Z,28.97
2018-03-03T09:27:20.274Z,28.90
2018-03-03T09:29:47.736Z,27.73
2018-03-03T09:32:15.192Z,27.47
2018-03-03T09:34:42.655Z,27.57
2018-03-03T09:37:10.105Z,28.23
2018-03-03T09:39:37.578Z,27.67
2018-03-03T09:42:05.030Z,30.27
2018-03-03T09:44:33.272Z,27.60
2018-03-03T09:47:00.746Z,28.13
2018-03-03T09:49:29.009Z,29.30
2018-03-03T09:51:56.451Z,31.07
2018-03-03T09:54:23.928Z,29.23
2018-03-03T09:56:51.425Z,27.63
2018-03-03T09:59:18.882Z,28.63
2018-03-03T10:01:52.329Z,28.13
2018-03-03T10:04:13.814Z,29.07
2018-03-03T10:06:42.048Z,28.03
2018-03-03T10:09:09.496Z,29.90
2018-03-03T10:11:36.950Z,28.93
2018-03-03T10:16:32.118Z,27.30
2018-03-03T10:19:00.340Z,29.93
2018-03-03T10:21:28.556Z,29.13
2018-03-03T10:23:56.025Z,27.83
2018-03-03T10:26:23.482Z,29.10
2018-03-03T10:28:50.936Z,29.27
2018-03-03T10:31:18.407Z,31.53
2018-03-03T10:33:45.911Z,29.23
2018-03-03T10:36:13.362Z,30.43
2018-03-03T10:38:41.601Z,29.10
2018-03-03T10:41:09.081Z,29.13
2018-03-03T10:43:36.546Z,31.53
2018-03-03T10:46:03.994Z,30.30
2018-03-03T10:48:31.468Z,29.63
2018-03-03T10:50:58.911Z,26.70
2018-03-03T10:53:26.400Z,32.40
2018-03-03T10:55:53.871Z,30.33
2018-03-03T10:58:21.323Z,31.43
2018-03-03T11:00:50.741Z,31.30
2018-03-03T11:03:18.208Z,28.97
2018-03-03T11:05:45.691Z,30.27
2018-03-03T11:08:13.147Z,31.80
2018-03-03T11:10:40.620Z,30.23
2018-03-03T11:13:08.090Z,30.73
2018-03-03T11:15:35.594Z,30.50
2018-03-03T11:18:03.047Z,29.97
2018-03-03T11:20:30.534Z,31.53
2018-03-03T11:22:57.986Z,29.97
2018-03-03T11:25:25.477Z,30.77
2018-03-03T11:27:52.951Z,31.70
2018-03-03T11:30:20.422Z,31.73
2018-03-03T11:32:47.897Z,32.07
2018-03-03T11:35:16.127Z,30.83
2018-03-03T11:37:43.588Z,30.00
2018-03-03T11:40:11.054Z,32.77
2018-03-03T11:42:38.531Z,31.30
2018-03-03T11:45:06.002Z,29.43
2018-03-03T11:47:33.463Z,32.00
2018-03-03T11:50:01.008Z,31.87
2018-03-03T11:52:28.484Z,32.10
2018-03-03T11:54:55.972Z,32.63
2018-03-03T11:57:23.439Z,31.13
2018-03-03T11:59:50.966Z,32.90
2018-03-03T12:02:18.492Z,31.70
2018-03-03T12:04:46.694Z,32.80
2018-03-03T12:07:14.155Z,31.97
2018-03-03T12:09:41.618Z,32.37
2018-03-03T12:12:09.087Z,32.10
2018-03-03T12:14:36.560Z,32.27
2018-03-03T12:17:04.024Z,32.93
2018-03-03T12:19:31.483Z,31.83
2018-03-03T12:21:58.968Z,31.50
2018-03-03T12:24:26.423Z,33.27
2018-03-03T12:26:53.863Z,33.00
2018-03-03T12:29:21.319Z,32.17
2018-03-03T12:31:48.774Z,33.10
2018-03-03T12:34:16.252Z,32.93
2018-03-03T12:36:43.698Z,33.20
2018-03-03T12:39:11.216Z,32.37
2018-03-03T12:41:38.721Z,32.40
2018-03-03T12:44:06.131Z,34.47
2018-03-03T12:46:33.585Z,33.30
2018-03-03T12:49:01.820Z,33.27
2018-03-03T12:51:29.274Z,34.80
2018-03-03T12:53:57.490Z,33.03
2018-03-03T12:56:24.966Z,34.50
2018-03-03T12:58:52.430Z,33.20
2018-03-03T13:01:19.889Z,34.57
2018-03-03T13:03:47.371Z,34.17
2018-03-03T13:06:14.847Z,33.40
2018-03-03T13:08:43.070Z,33.40
2018-03-03T13:11:10.529Z,35.03
2018-03-03T13:13:37.994Z,36.17
2018-03-03T13:16:05.459Z,35.70
2018-03-03T13:18:32.938Z,35.20
2018-03-03T13:21:00.408Z,34.47
2018-03-03T13:23:27.919Z,35.60
2018-03-03T13:25:56.176Z,35.10
2018-03-03T13:28:23.639Z,35.70
2018-03-03T13:30:51.123Z,37.63
2018-03-03T13:33:19.341Z,36.80
2018-03-03T13:35:46.791Z,34.70
2018-03-03T13:38:14.252Z,36.00
2018-03-03T13:40:41.712Z,36.47
2018-03-03T13:43:09.197Z,34.17
2018-03-03T13:45:36.633Z,34.77
2018-03-03T13:48:04.105Z,36.30
2018-03-03T13:50:31.556Z,35.83
2018-03-03T13:52:59.791Z,36.70
2018-03-03T13:55:27.235Z,36.40
2018-03-03T13:57:54.685Z,37.63
2018-03-03T14:00:22.155Z,36.13
2018-03-03T14:02:49.606Z,36.53
2018-03-03T14:05:17.145Z,37.50
2018-03-03T14:07:45.362Z,35.40
2018-03-03T14:10:12.802Z,36.87
2018-03-03T14:12:40.291Z,38.77
2018-03-03T14:15:07.743Z,37.53
2018-03-03T14:17:35.199Z,35.40
2018-03-03T14:20:02.664Z,34.77
2018-03-03T14:22:30.129Z,35.57
2018-03-03T14:24:57.600Z,35.63
2018-03-03T14:27:25.066Z,37.57
2018-03-03T14:29:52.532Z,38.10
2018-03-03T14:32:19.980Z,33.97
2018-03-03T14:34:47.435Z,34.60
2018-03-03T14:37:14.914Z,34.73
2018-03-03T14:39:42.356Z,35.57
2018-03-03T14:42:09.801Z,35.97
2018-03-03T14:44:38.034Z,38.13
2018-03-03T14:47:05.495Z,36.77
2018-03-03T14:49:33.049Z,35.30
2018-03-03T14:52:00.503Z,35.20
2018-03-03T14:54:27.961Z,36.00
2018-03-03T14:56:55.433Z,37.43
2018-03-03T14:59:22.900Z,37.30
2018-03-03T15:01:50.363Z,36.70
2018-03-03T15:04:17.823Z,36.63
2018-03-03T15:06:45.295Z,37.90
2018-03-03T15:09:12.737Z,34.63
2018-03-03T15:11:40.201Z,37.37
2018-03-03T15:14:08.492Z,37.03
2018-03-03T15:16:35.947Z,36.43
2018-03-03T15:19:03.461Z,35.83
2018-03-03T15:21:30.899Z,36.27
2018-03-03T15:23:58.356Z,37.57
2018-03-03T15:26:25.808Z,35.27
2018-03-03T15:28:53.268Z,35.43
2018-03-03T15:31:20.747Z,36.37
2018-03-03T15:33:48.212Z,34.50
2018-03-03T15:36:15.699Z,36.53
2018-03-03T15:38:43.155Z,36.87
2018-03-03T15:41:10.614Z,36.27
2018-03-03T15:43:38.073Z,35.93
2018-03-03T15:46:05.551Z,37.20
2018-03-03T15:48:32.997Z,36.93
2018-03-03T15:51:00.504Z,37.23
2018-03-03T15:53:28.719Z,38.00
2018-03-03T15:55:56.183Z,37.47
2018-03-03T15:58:23.644Z,38.33
2018-03-03T16:00:51.113Z,37.77
2018-03-03T16:03:18.566Z,36.20
2018-03-03T16:05:46.067Z,38.40
2018-03-03T16:08:13.596Z,38.33
2018-03-03T16:10:41.043Z,39.00
2018-03-03T16:13:08.504Z,36.03
2018-03-03T16:15:35.955Z,39.67
2018-03-03T16:18:03.450Z,37.87
2018-03-03T16:20:31.636Z,37.80
2018-03-03T16:22:59.092Z,38.47
2018-03-03T16:25:26.564Z,38.87
2018-03-03T16:27:54.046Z,37.27
2018-03-03T16:30:21.507Z,37.50
2018-03-03T16:32:48.962Z,37.70
2018-03-03T16:35:16.412Z,38.20
2018-03-03T16:37:43.874Z,36.87
2018-03-03T16:40:11.327Z,38.90
2018-03-03T16:42:38.798Z,37.47
2018-03-03T16:45:06.253Z,38.80
2018-03-03T16:47:33.699Z,39.50
2018-03-03T16:50:01.292Z,37.30
2018-03-03T16:52:28.738Z,39.37
2018-03-03T16:54:56.235Z,37.80
2018-03-03T16:57:23.682Z,38.73
2018-03-03T16:59:51.155Z,38.00
2018-03-03T17:02:18.643Z,39.23
2018-03-03T17:04:46.105Z,38.40
2018-03-03T17:07:13.561Z,39.03
2018-03-03T17:09:41.013Z,38.40
2018-03-03T17:12:08.479Z,38.27
2018-03-03T17:14:35.957Z,39.03
2018-03-03T17:17:03.391Z,39.80
2018-03-03T17:19:31.128Z,41.80
2018-03-03T17:21:58.580Z,40.53
2018-03-03T17:24:26.074Z,38.43
2018-03-03T17:26:53.647Z,39.47
2018-03-03T17:29:21.101Z,40.23
2018-03-03T17:31:48.562Z,39.97
2018-03-03T17:34:16.171Z,40.70
2018-03-03T17:36:43.619Z,39.33
2018-03-03T17:39:11.079Z,39.77
2018-03-03T17:41:38.523Z,40.83
2018-03-03T17:44:05.996Z,39.70
2018-03-03T17:46:33.460Z,36.70
2018-03-03T17:49:00.931Z,39.80
2018-03-03T17:51:28.379Z,40.67
2018-03-03T17:53:55.852Z,39.73
2018-03-03T17:56:23.325Z,38.37
2018-03-03T17:58:50.799Z,39.27
2018-03-03T18:01:19.043Z,40.70
2018-03-03T18:03:46.484Z,39.87
2018-03-03T18:06:13.946Z,39.53
2018-03-03T18:08:41.408Z,38.87
2018-03-03T18:11:08.849Z,38.23
2018-03-03T18:13:36.341Z,37.67
2018-03-03T18:16:04.548Z,39.57
2018-03-03T18:18:32.011Z,37.63
2018-03-03T18:20:59.487Z,39.40
2018-03-03T18:23:26.942Z,37.50
2018-03-03T18:25:54.422Z,38.53
2018-03-03T18:28:21.875Z,38.17
2018-03-03T18:30:49.344Z,38.03
2018-03-03T18:33:16.814Z,39.00
2018-03-03T18:35:44.237Z,37.63
2018-03-03T18:38:11.694Z,38.80
2018-03-03T18:40:39.138Z,37.30
2018-03-03T18:43:06.602Z,37.03
2018-03-03T18:45:34.047Z,37.93
2018-03-03T18:48:01.502Z,37.87
2018-03-03T18:50:29.722Z,36.40
2018-03-03T18:52:57.177Z,36.13
2018-03-03T18:55:24.642Z,37.30
2018-03-03T18:57:52.108Z,37.30
2018-03-03T19:00:19.579Z,36.33
2018-03-03T19:02:47.066Z,36.37
2018-03-03T19:05:14.541Z,36.63
2018-03-03T19:07:41.981Z,37.87
2018-03-03T19:10:09.506Z,36.17
2018-03-03T19:12:36.979Z,35.73
2018-03-03T19:15:04.493Z,36.37
2018-03-03T19:17:31.906Z,36.73
2018-03-03T19:19:59.375Z,35.60
2018-03-03T19:22:26.822Z,36.83
2018-03-03T19:24:54.298Z,36.90
2018-03-03T19:27:21.750Z,36.23
2018-03-03T19:29:49.229Z,35.40
2018-03-03T19:32:16.681Z,34.93
2018-03-03T19:34:44.152Z,35.60
2018-03-03T19:37:11.617Z,35.73
2018-03-03T19:39:39.094Z,35.07
2018-03-03T19:42:06.650Z,34.73
2018-03-03T19:44:34.099Z,33.63
2018-03-03T19:47:01.570Z,33.47
2018-03-03T19:49:29.047Z,34.57
2018-03-03T19:51:56.510Z,34.73
2018-03-03T19:54:23.960Z,34.70
2018-03-03T19:56:51.420Z,35.97
2018-03-03T19:59:18.885Z,35.13
2018-03-03T20:01:46.351Z,35.83
2018-03-03T20:04:13.802Z,34.93
2018-03-03T20:06:41.255Z,34.70
2018-03-03T20:09:08.717Z,34.67
2018-03-03T20:11:36.208Z,35.37
2018-03-03T20:14:03.712Z,35.10
2018-03-03T20:16:31.172Z,35.40
2018-03-03T20:18:58.623Z,33.73
2018-03-03T20:21:26.077Z,35.30
2018-03-03T20:23:53.546Z,35.80
2018-03-03T20:26:21.010Z,34.77
2018-03-03T20:28:48.457Z,36.40
2018-03-03T20:31:15.910Z,35.83
2018-03-03T20:33:43.363Z,34.10
2018-03-03T20:36:10.828Z,35.23
2018-03-03T20:38:38.294Z,34.27
2018-03-03T20:41:05.755Z,34.03
2018-03-03T20:43:33.214Z,36.47
2018-03-03T20:46:00.694Z,35.20
2018-03-03T20:48:28.150Z,34.30
2018-03-03T20:50:55.601Z,36.67
2018-03-03T20:53:23.063Z,35.43
2018-03-03T20:55:50.521Z,35.97
2018-03-03T20:58:18.039Z,36.87
2018-03-03T21:00:45.515Z,35.63
2018-03-03T21:03:13.758Z,37.63
2018-03-03T21:05:41.223Z,35.63
2018-03-03T21:08:08.675Z,34.70
2018-03-03T21:10:36.167Z,36.30
2018-03-03T21:13:03.645Z,36.07
2018-03-03T21:15:31.909Z,38.27
2018-03-03T21:17:59.365Z,36.90
2018-03-03T21:20:26.831Z,37.17
2018-03-03T21:22:54.291Z,37.20
2018-03-03T21:25:21.784Z,36.53
2018-03-03T21:27:50.016Z,36.47
2018-03-03T21:30:17.497Z,36.80
2018-03-03T21:32:44.956Z,36.73
2018-03-03T21:35:12.426Z,39.23
2018-03-03T21:37:40.656Z,36.10
2018-03-03T21:40:08.142Z,38.50
2018-03-03T21:42:35.608Z,39.07
2018-03-03T21:45:03.058Z,36.93
2018-03-03T21:47:30.502Z,39.80
2018-03-03T21:49:57.972Z,37.30
2018-03-03T21:52:25.406Z,40.83
2018-03-03T21:54:53.649Z,37.67
2018-03-03T21:57:21.105Z,38.53
2018-03-03T21:59:48.566Z,39.03
2018-03-03T22:02:16.026Z,40.33
2018-03-03T22:04:43.491Z,38.13
2018-03-03T22:07:10.955Z,37.20
2018-03-03T22:09:38.412Z,39.03
2018-03-03T22:12:05.892Z,39.93
2018-03-03T22:14:33.339Z,40.13
2018-03-03T22:17:00.790Z,35.97
2018-03-03T22:19:28.272Z,38.80
2018-03-03T22:21:55.726Z,40.77
2018-03-03T22:24:23.190Z,39.70
2018-03-03T22:26:50.636Z,38.80
2018-03-03T22:29:18.113Z,41.50
2018-03-03T22:31:45.652Z,39.07
2018-03-03T22:34:13.131Z,39.03
2018-03-03T22:36:40.575Z,39.60
2018-03-03T22:39:08.035Z,39.23
2018-03-03T22:41:35.495Z,40.90
2018-03-03T22:44:02.959Z,41.87
2018-03-03T22:46:30.421Z,42.10
2018-03-03T22:48:57.878Z,41.93
2018-03-03T22:51:25.334Z,39.57
2018-03-03T22:53:52.801Z,39.33
2018-03-03T22:56:21.033Z,40.43
2018-03-03T22:58:48.499Z,41.07
2018-03-03T23:01:16.018Z,41.03
2018-03-03T23:03:43.475Z,44.03
2018-03-03T23:06:10.947Z,41.80
2018-03-03T23:08:38.403Z,40.97
2018-03-03T23:11:05.870Z,42.30
2018-03-03T23:13:33.337Z,42.40
2018-03-03T23:16:00.806Z,42.97
2018-03-03T23:18:28.266Z,41.23
2018-03-03T23:20:55.736Z,41.63
2018-03-03T23:23:23.201Z,42.27
2018-03-03T23:25:50.648Z,39.63
2018-03-03T23:28:18.112Z,40.73
2018-03-03T23:30:45.996Z,40.00
2018-03-03T23:33:13.450Z,41.40
2018-03-03T23:35:40.916Z,44.33
2018-03-03T23:38:08.395Z,41.60
2018-03-03T23:40:35.841Z,40.90
2018-03-03T23:43:03.356Z,42.57
2018-03-03T23:45:30.816Z,42.60
2018-03-03T23:47:58.277Z,44.33
2018-03-03T23:50:25.798Z,43.20
2018-03-03T23:52:53.258Z,42.47
2018-03-03T23:55:20.722Z,43.80
2018-03-03T23:57:48.174Z,44.13
